Aérodrome :
LOGIN :

S'inscrire | Disclaimer

   EN    FR    IT 

 










Légende :    VFR   VFR Marginal   IFR   IFR Intensif   IFR Très Intensif
Visi : 
Plafond : 
>= 8 km
>= 3000ft
5 à 8 km
1000 à 3000 ft
1500m à 5 km
500 à 1000 ft
800 à 1500m
200 à 500 ft
< 800m
< 200 ft
Symboles :   Orages  Brouillard  Fortes neiges  Fortes précipitations  Vent > 20 kt
SIGMETs :   Divers  Orages  Givrage  Turbulence  Onde Orograph.  Cendres Volcan.







- Altitude de l'aérodrome : 1585 ft
- Code IATA : SIR


LSGS - Sion

DERNIER METAR :
  • 101350Z 29007KT 240V330 9999 FEW020 BKN070 06/02 Q1023

METARs EXPIRÉS :
  • 101320Z 25010KT 200V290 9999 FEW020 BKN070 07/03 Q1023
  • 101250Z 26014KT 9999 FEW020 SCT040 BKN070 06/02 Q1024
  • 101220Z 26010KT 9999 FEW015 SCT030 BKN065 07/03 Q1024 RERA
  • 101150Z 25009KT 200V280 9999 -RA FEW015 SCT030 BKN060 06/02 Q1024
  • 101120Z 25006G17KT 190V320 9999 -RA SCT015 SCT040 BKN065 06/02 Q1024
  • 101050Z 20003KT 160V240 9999 -RA SCT015 SCT030 BKN065 05/02 Q1024

TAF TAF LSGS
Valide du 10 à 12h jusqu'au 10 à 21h UTC


101125Z 1012/1021 25010KT 9999 -RA SCT015 SCT030 BKN065
Pas de NOTAMs connus pour ce terrain.



MET'MAP, la Météo Aéronautique d'un coup d'oeil ! - Copyright ORBIFLY Décembre 2007 - Disclaimer

ORBIFLY MET'MAP TEAM :

Programmation & Développement : Alexandra Zaïnal
Conception & Développement : Baudouin d'Aumeries
Co-Programmation & Développement : Marc-Olivier Méhu
Soutien technique & logistique : Manuel Goepfert

Contact : metmap@orbifly.com




SOURCES & CREDITS :

   NOAA